Time;durP1;ratioP1;P1;durP2;ratioP2;P2;SDS_P1;SDS_P2;PMS_P1;PMS_P2;Temp;Humidity;BMP_temperature;BMP_pressure;BME280_temperature;BME280_humidity;BME280_pressure;Samples;Min_cycle;Max_cycle;Signal;HPM_P1;HPM_P2
2023/07/29 00:01:11;;;;;;;19.03;17.13;;;19.50;99.90;;;;;;5035148;28;20972;-69
2023/07/29 00:03:40;;;;;;;17.83;16.33;;;19.50;99.90;;;;;;5034876;28;20928;-69
2023/07/29 00:06:11;;;;;;;19.17;17.53;;;19.40;99.90;;;;;;5034480;28;20447;-69
2023/07/29 00:08:39;;;;;;;20.10;18.40;;;19.40;99.90;;;;;;5034663;28;20415;-69
2023/07/29 00:11:07;;;;;;;19.40;17.70;;;19.40;99.90;;;;;;5033294;28;20577;-69
2023/07/29 00:13:35;;;;;;;19.50;17.90;;;19.40;99.90;;;;;;5034946;28;20439;-69
2023/07/29 00:16:03;;;;;;;20.50;18.80;;;19.40;99.90;;;;;;5034488;28;20439;-69
2023/07/29 00:18:31;;;;;;;19.97;18.27;;;19.40;99.90;;;;;;5034563;28;20466;-69
2023/07/29 00:20:59;;;;;;;20.43;18.60;;;19.40;99.90;;;;;;5034313;28;20441;-69
2023/07/29 00:23:30;;;;;;;19.23;17.50;;;19.30;99.90;;;;;;5034292;28;20972;-69
2023/07/29 00:25:58;;;;;;;19.83;18.20;;;19.30;99.90;;;;;;5034273;28;20446;-69
2023/07/29 00:28:26;;;;;;;20.43;18.83;;;19.30;99.90;;;;;;5034357;28;20477;-69
2023/07/29 00:30:54;;;;;;;21.73;19.93;;;19.30;99.90;;;;;;5032791;28;20505;-69
2023/07/29 00:33:22;;;;;;;23.30;21.30;;;19.30;99.90;;;;;;5032903;28;20823;-69
2023/07/29 00:35:50;;;;;;;21.43;19.53;;;19.30;99.90;;;;;;5032896;28;20533;-69
2023/07/29 00:38:18;;;;;;;21.70;19.50;;;19.30;99.90;;;;;;5033043;28;20447;-69
2023/07/29 00:40:48;;;;;;;22.27;20.30;;;19.30;99.90;;;;;;5032649;28;20443;-69
2023/07/29 00:43:16;;;;;;;22.03;20.03;;;19.30;99.90;;;;;;5032735;28;20454;-69
2023/07/29 00:45:45;;;;;;;23.27;21.27;;;19.30;99.90;;;;;;5034132;28;20788;-69
2023/07/29 00:48:15;;;;;;;22.93;20.90;;;19.30;99.90;;;;;;5032106;28;21099;-69
2023/07/29 00:50:43;;;;;;;21.80;20.00;;;19.20;99.90;;;;;;5032622;28;20447;-69
2023/07/29 00:53:11;;;;;;;23.30;21.10;;;19.20;99.90;;;;;;5033790;28;20809;-69
2023/07/29 00:55:39;;;;;;;22.10;20.10;;;19.20;99.90;;;;;;5032508;28;20534;-69
2023/07/29 00:58:09;;;;;;;24.53;22.23;;;19.20;99.90;;;;;;5032494;28;20459;-69
2023/07/29 01:00:38;;;;;;;22.27;20.33;;;19.20;99.90;;;;;;5032431;28;20436;-69
2023/07/29 01:03:06;;;;;;;23.10;20.80;;;19.20;99.90;;;;;;5032268;28;20471;-69
2023/07/29 01:05:46;;;;;;;24.13;22.00;;;19.10;99.90;;;;;;5032345;28;20478;-69
2023/07/29 01:08:22;;;;;;;23.97;21.67;;;19.10;99.90;;;;;;5033744;28;20455;-70
2023/07/29 01:10:59;;;;;;;23.60;21.53;;;19.10;99.90;;;;;;5033607;28;20485;-69
2023/07/29 01:13:33;;;;;;;23.10;21.10;;;19.10;99.90;;;;;;5032233;28;20533;-69
2023/07/29 01:16:07;;;;;;;26.03;23.67;;;19.10;99.90;;;;;;5033759;28;20449;-69
2023/07/29 01:18:39;;;;;;;24.30;22.30;;;19.10;99.90;;;;;;5032148;28;20450;-69
2023/07/29 01:21:10;;;;;;;26.53;23.97;;;19.10;99.90;;;;;;5033416;28;20542;-69
2023/07/29 01:23:39;;;;;;;25.93;23.40;;;19.10;99.90;;;;;;5032335;28;20435;-69
2023/07/29 01:26:08;;;;;;;24.87;22.70;;;19.10;99.90;;;;;;5032033;28;20538;-69
2023/07/29 01:28:36;;;;;;;27.13;24.60;;;19.10;99.90;;;;;;5031976;28;20490;-69
2023/07/29 01:31:11;;;;;;;26.13;23.40;;;19.10;99.90;;;;;;5031912;28;20505;-69
2023/07/29 01:33:45;;;;;;;27.00;24.50;;;19.10;99.90;;;;;;5033216;28;20423;-69
2023/07/29 01:36:19;;;;;;;25.47;23.13;;;19.00;99.90;;;;;;5031934;28;20520;-69
2023/07/29 01:38:50;;;;;;;24.70;22.40;;;19.00;99.90;;;;;;5034039;28;20749;-69
2023/07/29 01:41:19;;;;;;;25.53;23.03;;;19.00;99.90;;;;;;5033370;28;20899;-69
2023/07/29 01:43:48;;;;;;;25.77;23.57;;;19.00;99.90;;;;;;5032202;28;20447;-69
2023/07/29 01:46:16;;;;;;;24.93;22.73;;;19.00;99.90;;;;;;5031870;28;20999;-69
2023/07/29 01:48:44;;;;;;;26.10;23.70;;;18.90;99.90;;;;;;5031789;28;20521;-69
2023/07/29 01:51:15;;;;;;;26.00;23.60;;;18.90;99.90;;;;;;5033261;28;20459;-69
2023/07/29 01:53:43;;;;;;;23.37;21.30;;;18.90;99.90;;;;;;5031763;28;20795;-69
2023/07/29 01:56:13;;;;;;;25.70;23.20;;;18.90;99.90;;;;;;5032993;28;20442;-69
2023/07/29 01:58:50;;;;;;;26.20;24.00;;;18.90;99.90;;;;;;5032023;28;20877;-69
2023/07/29 02:01:18;;;;;;;27.97;25.17;;;18.90;99.90;;;;;;5035517;28;20497;-69
2023/07/29 02:03:46;;;;;;;26.80;24.30;;;18.80;99.90;;;;;;5035652;28;21045;-69
2023/07/29 02:06:14;;;;;;;30.10;27.30;;;18.80;99.90;;;;;;5035599;28;20807;-69
2023/07/29 02:08:42;;;;;;;27.60;24.87;;;18.80;99.90;;;;;;5036076;28;20894;-69
2023/07/29 02:11:11;;;;;;;27.50;24.90;;;18.80;99.90;;;;;;5035268;28;20569;-69
2023/07/29 02:13:40;;;;;;;29.10;26.40;;;18.80;99.90;;;;;;5035485;28;20473;-69
2023/07/29 02:16:08;;;;;;;27.93;25.57;;;18.70;99.90;;;;;;5037178;28;20989;-69
2023/07/29 02:18:37;;;;;;;26.60;24.30;;;18.70;99.90;;;;;;5035639;28;20443;-69
2023/07/29 02:21:05;;;;;;;28.23;25.73;;;18.70;99.90;;;;;;5035297;28;20911;-69
2023/07/29 02:23:33;;;;;;;27.77;24.97;;;18.70;99.90;;;;;;5035355;28;20450;-69
2023/07/29 02:26:01;;;;;;;26.37;24.00;;;18.70;99.90;;;;;;5035234;28;20439;-69
2023/07/29 02:28:29;;;;;;;26.83;24.33;;;18.70;99.90;;;;;;5035144;28;21058;-69
2023/07/29 02:31:16;;;;;;;26.93;24.37;;;18.70;99.90;;;;;;5035142;28;20478;-69
2023/07/29 02:33:46;;;;;;;27.97;25.47;;;18.60;99.90;;;;;;5035201;28;20534;-69
2023/07/29 02:36:14;;;;;;;27.50;25.13;;;18.60;99.90;;;;;;5035083;28;20453;-69
2023/07/29 02:38:43;;;;;;;27.23;24.53;;;18.60;99.90;;;;;;5035084;28;20447;-69
2023/07/29 02:41:12;;;;;;;26.10;23.80;;;18.60;99.90;;;;;;5035023;28;20470;-69
2023/07/29 02:43:43;;;;;;;28.63;25.93;;;18.60;99.90;;;;;;5036156;28;20451;-69
2023/07/29 02:46:13;;;;;;;27.20;24.80;;;18.60;99.90;;;;;;5035078;28;20439;-69
2023/07/29 02:48:42;;;;;;;26.80;24.40;;;18.60;99.90;;;;;;5034745;28;20477;-69
2023/07/29 02:51:10;;;;;;;27.43;24.90;;;18.50;99.90;;;;;;5035251;28;20462;-69
2023/07/29 02:53:39;;;;;;;27.43;24.63;;;18.50;99.90;;;;;;5036255;28;20435;-69
2023/07/29 02:56:09;;;;;;;27.73;25.03;;;18.50;99.90;;;;;;5034713;28;20447;-69
2023/07/29 02:58:38;;;;;;;27.13;24.63;;;18.50;99.90;;;;;;5034641;28;20446;-69
2023/07/29 03:01:07;;;;;;;29.03;26.07;;;18.50;99.90;;;;;;5034713;28;20458;-69
2023/07/29 03:03:37;;;;;;;28.53;25.83;;;18.40;99.90;;;;;;5034584;28;20437;-69
2023/07/29 03:06:07;;;;;;;27.37;24.90;;;18.40;99.90;;;;;;5034523;28;20443;-69
2023/07/29 03:08:36;;;;;;;31.13;28.13;;;18.40;99.90;;;;;;5034392;28;20521;-69
2023/07/29 03:11:07;;;;;;;27.63;24.93;;;18.40;99.90;;;;;;5033875;28;20546;-69
2023/07/29 03:13:35;;;;;;;28.00;25.30;;;18.40;99.90;;;;;;5035691;28;20426;-69
2023/07/29 03:16:07;;;;;;;30.97;27.73;;;18.40;99.90;;;;;;5035651;28;20438;-69
2023/07/29 03:18:38;;;;;;;31.97;28.87;;;18.30;99.90;;;;;;5034299;28;20597;-69
2023/07/29 03:21:06;;;;;;;30.50;27.60;;;18.30;99.90;;;;;;5034279;28;20565;-69
2023/07/29 03:23:35;;;;;;;31.70;28.70;;;18.30;99.90;;;;;;5035473;28;20443;-69
2023/07/29 03:26:09;;;;;;;31.30;28.50;;;18.30;99.90;;;;;;5034156;28;20447;-69
2023/07/29 03:28:40;;;;;;;37.77;34.17;;;18.30;99.90;;;;;;5035590;28;20458;-69
2023/07/29 03:31:08;;;;;;;31.93;28.93;;;18.30;99.90;;;;;;5034068;28;20521;-69
2023/07/29 03:33:38;;;;;;;31.03;28.03;;;18.30;99.90;;;;;;5033975;28;20840;-69
2023/07/29 03:36:07;;;;;;;31.63;28.63;;;18.30;99.90;;;;;;5033819;28;20439;-69
2023/07/29 03:38:39;;;;;;;30.80;28.03;;;18.30;99.90;;;;;;5033900;28;20941;-69
2023/07/29 03:41:08;;;;;;;31.57;28.67;;;18.30;99.90;;;;;;5033770;28;21025;-69
2023/07/29 03:43:36;;;;;;;30.57;27.97;;;18.30;99.90;;;;;;5035396;28;20511;-69
2023/07/29 03:46:05;;;;;;;31.63;28.73;;;18.30;99.90;;;;;;5034168;28;20447;-69
2023/07/29 03:48:37;;;;;;;33.37;30.27;;;18.30;99.90;;;;;;5033735;28;20462;-69
2023/07/29 03:51:06;;;;;;;32.43;29.30;;;18.30;99.90;;;;;;5033576;28;20513;-69
2023/07/29 03:53:34;;;;;;;30.60;27.83;;;18.30;99.90;;;;;;5033795;28;20479;-69
2023/07/29 03:56:02;;;;;;;30.80;28.00;;;18.30;99.90;;;;;;5033519;28;20417;-69
2023/07/29 03:58:30;;;;;;;32.97;29.77;;;18.30;99.90;;;;;;5033525;28;20463;-69
2023/07/29 04:00:59;;;;;;;32.60;29.67;;;18.30;99.90;;;;;;5033392;28;20446;-69
2023/07/29 04:03:27;;;;;;;32.30;29.30;;;18.30;99.90;;;;;;5033436;28;20454;-69
2023/07/29 04:05:57;;;;;;;32.60;29.70;;;18.30;99.90;;;;;;5033320;28;20530;-69
2023/07/29 04:08:26;;;;;;;32.80;29.80;;;18.30;99.90;;;;;;5033254;28;20443;-69
2023/07/29 04:10:54;;;;;;;33.90;30.43;;;18.30;99.90;;;;;;5033053;28;20512;-69
2023/07/29 04:13:22;;;;;;;32.07;28.97;;;18.30;99.90;;;;;;5033239;28;20447;-69
2023/07/29 04:15:51;;;;;;;30.53;27.60;;;18.30;99.90;;;;;;5034452;28;20434;-69
2023/07/29 04:18:19;;;;;;;30.80;27.80;;;18.30;99.90;;;;;;5034422;28;20526;-69
2023/07/29 04:20:48;;;;;;;31.33;28.13;;;18.30;99.90;;;;;;5033314;28;20428;-69
2023/07/29 04:23:18;;;;;;;30.23;27.43;;;18.30;99.90;;;;;;5033814;28;20463;-69
2023/07/29 04:25:46;;;;;;;32.03;28.93;;;18.30;99.90;;;;;;5034332;28;20435;-69
2023/07/29 04:28:14;;;;;;;32.63;29.53;;;18.30;99.90;;;;;;5032965;28;20805;-69
2023/07/29 04:30:42;;;;;;;28.90;26.23;;;18.30;99.90;;;;;;5032825;28;20470;-69
2023/07/29 04:33:10;;;;;;;31.03;28.23;;;18.30;99.90;;;;;;5033113;28;20486;-69
2023/07/29 04:35:39;;;;;;;28.43;25.63;;;18.30;99.90;;;;;;5032866;28;20451;-69
2023/07/29 04:38:07;;;;;;;29.87;26.90;;;18.40;99.90;;;;;;5032818;28;20445;-69
2023/07/29 04:40:37;;;;;;;29.17;26.27;;;18.40;99.90;;;;;;5034045;28;20443;-69
2023/07/29 04:43:05;;;;;;;26.87;24.47;;;18.40;99.90;;;;;;5032705;28;20449;-69
2023/07/29 04:45:35;;;;;;;26.27;23.80;;;18.40;99.90;;;;;;5034414;28;20471;-69
2023/07/29 04:48:04;;;;;;;26.17;23.63;;;18.40;99.90;;;;;;5033850;28;20435;-69
2023/07/29 04:50:32;;;;;;;25.33;23.03;;;18.40;99.90;;;;;;5032483;28;20467;-69
2023/07/29 04:53:00;;;;;;;28.33;25.43;;;18.40;99.90;;;;;;5033753;28;20450;-69
2023/07/29 04:55:29;;;;;;;27.80;25.00;;;18.40;99.90;;;;;;5032528;28;20818;-69
2023/07/29 04:57:59;;;;;;;24.70;22.30;;;18.40;99.90;;;;;;5032426;28;20442;-69
2023/07/29 05:00:28;;;;;;;25.80;23.40;;;18.40;99.90;;;;;;5032460;28;20483;-69
2023/07/29 05:02:56;;;;;;;26.57;23.97;;;18.40;99.90;;;;;;5034125;28;20434;-69
2023/07/29 05:05:24;;;;;;;27.17;24.47;;;18.50;99.90;;;;;;5034124;28;20471;-69
2023/07/29 05:07:52;;;;;;;25.63;23.23;;;18.40;99.90;;;;;;5032321;28;20439;-69
2023/07/29 05:10:21;;;;;;;24.10;21.97;;;18.50;99.90;;;;;;5033006;28;20562;-69
2023/07/29 05:12:49;;;;;;;26.50;24.10;;;18.50;99.90;;;;;;5032162;28;21074;-69
2023/07/29 05:15:19;;;;;;;25.43;22.93;;;18.50;99.90;;;;;;5032248;28;20546;-69
2023/07/29 05:17:48;;;;;;;24.40;21.97;;;18.50;99.90;;;;;;5032235;28;20439;-69
2023/07/29 05:20:16;;;;;;;23.77;21.37;;;18.60;99.90;;;;;;5033626;28;20439;-69
2023/07/29 05:22:44;;;;;;;24.80;22.37;;;18.60;99.90;;;;;;5033320;28;20483;-69
2023/07/29 05:25:12;;;;;;;26.17;23.67;;;18.60;99.90;;;;;;5032010;28;20483;-69
2023/07/29 05:27:40;;;;;;;24.60;22.40;;;18.60;99.90;;;;;;5032067;28;20506;-69
2023/07/29 05:30:09;;;;;;;25.43;23.17;;;18.60;99.90;;;;;;5032054;28;20593;-69
2023/07/29 05:32:39;;;;;;;26.83;23.17;;;18.70;99.90;;;;;;5033211;28;20934;-69
2023/07/29 05:35:08;;;;;;;24.20;22.13;;;18.70;99.90;;;;;;5031726;28;20802;-69
2023/07/29 05:37:38;;;;;;;26.20;23.80;;;18.70;99.90;;;;;;5031929;28;20439;-69
2023/07/29 05:40:09;;;;;;;23.93;21.93;;;18.70;99.90;;;;;;5032170;28;20859;-69
2023/07/29 05:42:38;;;;;;;24.67;22.37;;;18.70;99.90;;;;;;5032722;28;20617;-69
2023/07/29 05:45:08;;;;;;;25.07;22.40;;;18.70;99.90;;;;;;5033552;28;20785;-69
2023/07/29 05:47:36;;;;;;;26.67;24.37;;;18.70;99.90;;;;;;5032056;28;20551;-69
2023/07/29 05:50:07;;;;;;;24.37;22.10;;;18.70;99.90;;;;;;5031782;28;20840;-69
2023/07/29 05:52:35;;;;;;;25.43;23.17;;;18.70;99.90;;;;;;5033143;28;20805;-69
2023/07/29 05:55:04;;;;;;;24.23;22.03;;;18.70;99.90;;;;;;5032072;28;20883;-69
2023/07/29 05:57:32;;;;;;;23.87;21.67;;;18.80;99.90;;;;;;5031798;28;20426;-69
2023/07/29 06:00:00;;;;;;;24.30;22.20;;;18.80;99.90;;;;;;5033037;28;20573;-69
2023/07/29 06:02:29;;;;;;;24.07;21.87;;;18.80;99.90;;;;;;5032964;28;20454;-69
2023/07/29 06:04:57;;;;;;;26.07;23.57;;;18.90;99.90;;;;;;5033270;28;20955;-69
2023/07/29 06:07:30;;;;;;;26.43;24.10;;;18.90;99.90;;;;;;5031719;28;20983;-69
2023/07/29 06:09:58;;;;;;;25.80;23.20;;;18.90;99.90;;;;;;5031618;28;20478;-70
2023/07/29 06:12:26;;;;;;;25.33;23.10;;;18.90;99.90;;;;;;5033645;28;20461;-69
2023/07/29 06:14:54;;;;;;;26.53;23.83;;;18.90;99.90;;;;;;5031618;28;20910;-69
2023/07/29 06:17:22;;;;;;;26.53;24.23;;;18.90;99.90;;;;;;5031696;28;20482;-69
2023/07/29 06:19:51;;;;;;;25.70;23.40;;;19.00;99.90;;;;;;5031598;28;20455;-69
2023/07/29 06:22:19;;;;;;;26.30;24.00;;;19.00;99.90;;;;;;5031567;28;20503;-69
2023/07/29 06:24:48;;;;;;;27.60;25.20;;;19.00;99.90;;;;;;5031597;28;20482;-69
2023/07/29 06:27:16;;;;;;;26.77;24.23;;;19.00;99.90;;;;;;5033009;28;20878;-69
2023/07/29 06:29:45;;;;;;;25.47;23.37;;;19.10;99.90;;;;;;5032686;28;20443;-69
2023/07/29 06:32:13;;;;;;;26.83;24.33;;;19.10;99.90;;;;;;5032889;28;20463;-69
2023/07/29 06:34:41;;;;;;;25.73;23.53;;;19.10;99.90;;;;;;5033285;28;20435;-69
2023/07/29 06:37:09;;;;;;;27.50;25.00;;;19.10;99.90;;;;;;5032758;28;20488;-69
2023/07/29 06:39:37;;;;;;;24.70;22.50;;;19.10;99.90;;;;;;5033276;28;20413;-69
2023/07/29 06:42:07;;;;;;;24.93;22.83;;;19.10;99.90;;;;;;5032877;28;20811;-69
2023/07/29 06:44:36;;;;;;;23.03;21.00;;;19.10;99.90;;;;;;5031325;28;20439;-69
2023/07/29 06:47:04;;;;;;;22.57;20.57;;;19.10;99.90;;;;;;5034283;28;20424;-69
2023/07/29 06:49:32;;;;;;;23.13;20.97;;;19.10;99.90;;;;;;5036121;28;20493;-69
2023/07/29 06:52:00;;;;;;;22.03;20.20;;;19.20;99.90;;;;;;5035951;28;20585;-69
2023/07/29 06:54:28;;;;;;;20.03;18.27;;;19.20;99.90;;;;;;5034823;28;20446;-69
2023/07/29 06:56:57;;;;;;;20.10;18.47;;;19.20;99.90;;;;;;5036509;28;20439;-69
2023/07/29 06:59:26;;;;;;;20.00;18.37;;;19.30;99.90;;;;;;5034822;28;21003;-69
2023/07/29 07:01:54;;;;;;;20.70;18.70;;;19.30;99.90;;;;;;5035089;28;20503;-69
2023/07/29 07:04:22;;;;;;;18.93;16.90;;;19.30;99.90;;;;;;5035870;28;21024;-70
2023/07/29 07:06:50;;;;;;;17.83;16.33;;;19.40;99.90;;;;;;5036144;28;20529;-69
2023/07/29 07:09:19;;;;;;;17.83;16.23;;;19.40;99.90;;;;;;5036363;28;20891;-69
2023/07/29 07:11:47;;;;;;;16.30;14.80;;;19.40;99.90;;;;;;5035865;28;20453;-69
2023/07/29 07:14:15;;;;;;;15.30;13.93;;;19.50;99.90;;;;;;5035967;28;20430;-69
2023/07/29 07:16:45;;;;;;;15.43;14.13;;;19.50;99.90;;;;;;5036016;28;20925;-69
2023/07/29 07:19:13;;;;;;;15.47;14.07;;;19.50;99.90;;;;;;5036707;28;20494;-69
2023/07/29 07:21:41;;;;;;;14.80;13.53;;;19.60;99.90;;;;;;5035577;28;20514;-69
2023/07/29 07:24:10;;;;;;;15.00;13.70;;;19.60;99.90;;;;;;5035768;28;20983;-69
2023/07/29 07:26:38;;;;;;;14.10;12.90;;;19.70;99.90;;;;;;5036022;28;20443;-70
2023/07/29 07:29:06;;;;;;;12.40;11.40;;;19.80;99.90;;;;;;5035578;28;20431;-69
2023/07/29 07:31:35;;;;;;;13.20;12.00;;;19.80;99.90;;;;;;5035564;28;20569;-69
2023/07/29 07:34:04;;;;;;;11.63;10.73;;;19.70;99.90;;;;;;5035590;28;20881;-68
2023/07/29 07:36:32;;;;;;;11.57;10.30;;;19.70;99.90;;;;;;5035790;28;20493;-69
2023/07/29 07:39:01;;;;;;;10.27;9.27;;;19.70;99.90;;;;;;5035330;28;20489;-69
2023/07/29 07:41:29;;;;;;;11.77;10.57;;;19.70;99.90;;;;;;5035214;28;20457;-69
2023/07/29 07:43:57;;;;;;;9.73;8.80;;;19.70;99.90;;;;;;5035387;28;20530;-70
2023/07/29 07:46:26;;;;;;;10.23;9.27;;;19.70;99.90;;;;;;5035573;28;20512;-69
2023/07/29 07:48:54;;;;;;;13.77;10.10;;;19.70;99.90;;;;;;5035377;28;20936;-69
2023/07/29 07:51:23;;;;;;;9.53;8.73;;;19.70;99.90;;;;;;5035257;28;21001;-69
2023/07/29 07:53:51;;;;;;;10.60;9.50;;;19.70;99.90;;;;;;5035620;28;20435;-69
2023/07/29 07:56:19;;;;;;;8.77;8.07;;;19.70;99.90;;;;;;5034954;28;20925;-69
2023/07/29 07:58:47;;;;;;;8.43;7.67;;;19.80;99.90;;;;;;5033076;28;21043;-68
2023/07/29 08:01:16;;;;;;;7.57;6.97;;;19.80;99.90;;;;;;5035302;28;20876;-69
2023/07/29 08:03:44;;;;;;;9.50;8.57;;;19.80;99.90;;;;;;5035344;28;20442;-68
2023/07/29 08:06:12;;;;;;;7.70;7.00;;;19.80;99.90;;;;;;5035411;28;20439;-68
2023/07/29 08:08:41;;;;;;;7.90;6.40;;;19.90;99.90;;;;;;5034927;28;20492;-68
2023/07/29 08:11:09;;;;;;;7.23;6.53;;;19.90;99.90;;;;;;5034974;28;21015;-68
2023/07/29 08:13:38;;;;;;;6.07;5.60;;;20.00;99.90;;;;;;5034935;28;20976;-69
2023/07/29 08:16:06;;;;;;;5.90;5.40;;;20.00;99.90;;;;;;5035028;28;20521;-69
2023/07/29 08:18:34;;;;;;;7.77;6.27;;;20.10;99.90;;;;;;5035020;28;20431;-69
2023/07/29 08:21:03;;;;;;;7.80;5.70;;;20.10;99.90;;;;;;5034590;28;20431;-69
2023/07/29 08:23:33;;;;;;;5.80;5.20;;;20.20;99.90;;;;;;5033257;28;20431;-69
2023/07/29 08:26:05;;;;;;;6.13;4.90;;;20.20;99.90;;;;;;5034463;28;20467;-70
2023/07/29 08:28:34;;;;;;;5.90;5.13;;;20.20;99.90;;;;;;5033164;28;20925;-69
2023/07/29 08:31:03;;;;;;;6.40;5.00;;;20.30;99.90;;;;;;5034274;28;20498;-70
2023/07/29 08:33:33;;;;;;;4.57;4.20;;;20.30;99.90;;;;;;5034320;28;20435;-69
2023/07/29 08:36:01;;;;;;;4.70;4.10;;;20.30;99.90;;;;;;5035037;28;20427;-69
2023/07/29 08:38:29;;;;;;;4.33;3.93;;;20.40;99.90;;;;;;5034793;28;20434;-69
2023/07/29 08:41:04;;;;;;;4.43;4.03;;;20.40;99.90;;;;;;5034173;28;20470;-69
2023/07/29 08:43:34;;;;;;;4.40;4.00;;;20.40;99.90;;;;;;5034197;28;20896;-69
2023/07/29 08:46:02;;;;;;;4.13;3.73;;;20.40;99.90;;;;;;5034050;28;20443;-69
2023/07/29 08:48:34;;;;;;;5.47;3.80;;;20.40;99.90;;;;;;5034217;28;20435;-70
2023/07/29 08:51:05;;;;;;;5.83;5.33;;;20.50;99.90;;;;;;5032674;28;20446;-70
2023/07/29 08:53:33;;;;;;;6.00;5.57;;;20.50;99.90;;;;;;5034342;28;20505;-70
2023/07/29 08:56:02;;;;;;;5.63;5.03;;;20.60;99.90;;;;;;5034096;28;20450;-69
2023/07/29 08:58:30;;;;;;;5.23;4.60;;;20.60;99.90;;;;;;5034165;28;20449;-69
2023/07/29 09:01:00;;;;;;;6.33;5.37;;;20.60;99.90;;;;;;5033813;28;20439;-69
2023/07/29 09:03:28;;;;;;;6.10;5.50;;;20.70;99.90;;;;;;5032416;28;20450;-70
2023/07/29 09:05:58;;;;;;;6.07;4.93;;;20.70;99.90;;;;;;5033974;28;20467;-69
2023/07/29 09:08:27;;;;;;;6.63;6.13;;;20.70;99.90;;;;;;5034240;28;20434;-69
2023/07/29 09:10:55;;;;;;;6.90;5.87;;;20.70;99.90;;;;;;5033225;28;20818;-69
2023/07/29 09:13:24;;;;;;;7.30;6.70;;;20.70;99.90;;;;;;5034400;28;20948;-69
2023/07/29 09:15:55;;;;;;;6.20;5.63;;;20.80;99.90;;;;;;5034729;28;20442;-69
2023/07/29 09:18:28;;;;;;;5.87;5.30;;;20.80;99.90;;;;;;5033194;28;20497;-69
2023/07/29 09:21:00;;;;;;;5.37;4.93;;;20.80;99.90;;;;;;5034596;28;20430;-69
2023/07/29 09:23:28;;;;;;;5.63;5.13;;;20.90;99.90;;;;;;5034527;28;20423;-69
2023/07/29 09:26:02;;;;;;;5.90;5.33;;;20.90;99.90;;;;;;5034454;28;20971;-69
2023/07/29 09:28:35;;;;;;;5.47;5.07;;;20.90;99.90;;;;;;5034714;28;20447;-69
2023/07/29 09:31:04;;;;;;;6.03;5.23;;;21.00;99.90;;;;;;5034588;28;20419;-69
2023/07/29 09:33:36;;;;;;;6.00;5.50;;;21.00;99.90;;;;;;5034830;28;20522;-69
2023/07/29 09:36:10;;;;;;;7.30;6.70;;;21.10;99.90;;;;;;5034252;28;20441;-69
2023/07/29 09:38:39;;;;;;;6.33;5.83;;;21.10;99.90;;;;;;5032743;28;20959;-69
2023/07/29 09:41:07;;;;;;;7.33;6.70;;;21.20;99.90;;;;;;5034412;28;20797;-70
2023/07/29 09:43:36;;;;;;;6.87;6.37;;;21.20;99.90;;;;;;5034123;28;20433;-70
2023/07/29 09:46:06;;;;;;;7.73;7.23;;;21.30;99.90;;;;;;5033961;28;20438;-70
2023/07/29 09:48:36;;;;;;;6.07;5.67;;;21.40;99.90;;;;;;5034139;28;20854;-70
2023/07/29 09:51:12;;;;;;;6.50;5.90;;;21.40;99.90;;;;;;5034147;28;20534;-70
2023/07/29 09:53:42;;;;;;;6.77;6.30;;;21.50;99.90;;;;;;5034655;28;20557;-70
2023/07/29 09:56:14;;;;;;;6.80;6.37;;;21.60;99.90;;;;;;5034747;28;20423;-71
2023/07/29 09:58:45;;;;;;;6.50;6.10;;;21.70;99.90;;;;;;5034839;28;20473;-70
2023/07/29 10:01:14;;;;;;;6.33;5.83;;;21.80;99.90;;;;;;5034037;28;20490;-70
2023/07/29 10:03:45;;;;;;;6.07;5.67;;;21.80;99.90;;;;;;5034265;28;20439;-70
2023/07/29 10:06:16;;;;;;;6.60;6.10;;;21.90;99.90;;;;;;5034101;28;20418;-70
2023/07/29 10:08:44;;;;;;;6.63;6.13;;;21.90;99.90;;;;;;5033851;28;20522;-70
2023/07/29 10:11:13;;;;;;;6.27;5.77;;;21.90;99.90;;;;;;5034046;28;20506;-70
2023/07/29 10:13:41;;;;;;;4.60;4.30;;;22.00;99.90;;;;;;5033731;28;20499;-70
2023/07/29 10:16:17;;;;;;;4.23;3.93;;;21.90;99.90;;;;;;5033742;28;20422;-71
2023/07/29 10:18:46;;;;;;;5.13;4.67;;;21.90;99.90;;;;;;5033913;28;20449;-70
2023/07/29 10:21:16;;;;;;;5.00;4.63;;;21.90;99.90;;;;;;5035762;28;20485;-70
2023/07/29 10:23:50;;;;;;;5.20;4.80;;;21.80;99.90;;;;;;5038176;28;20429;-70
2023/07/29 10:26:21;;;;;;;4.60;4.30;;;21.80;99.90;;;;;;5038122;28;20505;-70
2023/07/29 10:28:53;;;;;;;6.83;5.23;;;21.80;99.90;;;;;;5037283;28;20514;-70
2023/07/29 10:31:23;;;;;;;4.30;4.00;;;21.80;99.90;;;;;;5037111;28;20482;-70
2023/07/29 10:33:53;;;;;;;5.43;4.97;;;21.90;99.90;;;;;;5036689;28;20458;-70
2023/07/29 10:36:22;;;;;;;4.53;4.13;;;22.00;99.90;;;;;;5036994;28;20415;-70
2023/07/29 10:38:50;;;;;;;4.30;3.90;;;22.10;99.90;;;;;;5036288;28;20443;-71
2023/07/29 10:41:19;;;;;;;4.40;4.00;;;22.20;99.90;;;;;;5034942;28;20511;-70
2023/07/29 10:43:47;;;;;;;4.00;3.70;;;22.20;99.90;;;;;;5036570;28;20442;-70
2023/07/29 10:46:19;;;;;;;3.60;3.30;;;22.30;99.90;;;;;;5037158;28;20537;-70
2023/07/29 10:48:55;;;;;;;4.07;3.77;;;22.30;99.90;;;;;;5036186;28;20464;-71
2023/07/29 10:51:26;;;;;;;4.70;3.00;;;22.40;99.90;;;;;;5036697;28;20497;-71
2023/07/29 10:53:56;;;;;;;3.40;3.20;;;22.50;99.90;;;;;;5036077;28;20458;-71
2023/07/29 10:56:32;;;;;;;4.30;3.33;;;22.60;99.90;;;;;;5036589;28;20442;-70
2023/07/29 10:59:23;;;;;;;6.97;3.20;;;22.70;99.90;;;;;;5035946;28;20439;-71
2023/07/29 11:01:54;;;;;;;3.33;3.10;;;22.70;99.90;;;;;;5035749;28;20549;-71
2023/07/29 11:04:28;;;;;;;3.43;3.13;;;22.70;99.90;;;;;;5036672;28;20441;-71
2023/07/29 11:07:27;;;;;;;3.10;2.90;;;22.60;99.90;;;;;;5036462;28;20415;-71
2023/07/29 11:10:04;;;;;;;3.50;3.20;;;22.60;99.90;;;;;;5036120;28;20458;-72
2023/07/29 11:12:43;;;;;;;2.90;2.70;;;22.60;99.90;;;;;;5035856;28;20976;-71
2023/07/29 11:15:17;;;;;;;4.40;3.23;;;22.60;99.90;;;;;;5035757;28;20415;-71
2023/07/29 11:17:47;;;;;;;3.80;3.40;;;22.60;99.90;;;;;;5036009;28;20454;-71
2023/07/29 11:20:18;;;;;;;3.57;3.27;;;22.50;99.90;;;;;;5036198;28;20419;-71
2023/07/29 11:22:46;;;;;;;3.47;2.80;;;22.50;99.90;;;;;;5035873;28;20516;-71
2023/07/29 11:25:17;;;;;;;3.43;3.20;;;22.50;99.90;;;;;;5035490;28;20445;-71
2023/07/29 11:27:46;;;;;;;3.93;2.93;;;22.40;99.90;;;;;;5036102;28;20426;-71
2023/07/29 11:30:15;;;;;;;3.27;3.00;;;22.40;99.90;;;;;;5035511;28;20545;-71
2023/07/29 11:32:45;;;;;;;4.67;3.13;;;22.40;99.90;;;;;;5035287;28;20517;-71
2023/07/29 11:35:15;;;;;;;4.93;3.47;;;22.40;99.90;;;;;;5035557;28;20438;-71
2023/07/29 11:37:46;;;;;;;3.77;3.50;;;22.40;99.90;;;;;;5035365;28;20449;-71
2023/07/29 11:40:16;;;;;;;3.33;3.03;;;22.40;99.90;;;;;;5035270;28;20420;-71
2023/07/29 11:42:45;;;;;;;3.30;3.00;;;22.40;99.90;;;;;;5035318;28;20825;-71
2023/07/29 11:45:14;;;;;;;3.50;2.60;;;22.40;99.90;;;;;;5035313;28;20481;-71
2023/07/29 11:47:45;;;;;;;3.20;2.80;;;22.40;99.90;;;;;;5035267;28;20427;-71
2023/07/29 11:50:14;;;;;;;3.33;3.03;;;22.40;99.90;;;;;;5033801;28;20435;-71
2023/07/29 11:52:45;;;;;;;4.20;3.20;;;22.40;99.90;;;;;;5034975;28;20485;-71
2023/07/29 11:55:15;;;;;;;5.33;3.70;;;22.40;99.90;;;;;;5035485;28;20431;-71
2023/07/29 11:57:44;;;;;;;4.07;3.20;;;22.50;99.90;;;;;;5035216;28;20445;-71
2023/07/29 12:00:14;;;;;;;4.13;3.50;;;22.60;99.90;;;;;;5035212;28;20530;-71
2023/07/29 12:02:45;;;;;;;3.60;3.30;;;22.70;99.90;;;;;;5035120;28;21002;-71
2023/07/29 12:05:15;;;;;;;3.70;3.40;;;22.80;99.90;;;;;;5034987;28;20470;-71
2023/07/29 12:07:45;;;;;;;4.00;2.90;;;22.90;99.90;;;;;;5034746;28;20783;-71
2023/07/29 12:10:14;;;;;;;4.23;3.07;;;23.00;99.90;;;;;;5034925;28;20450;-71
2023/07/29 12:12:46;;;;;;;3.33;2.77;;;23.00;99.90;;;;;;5035058;28;20902;-71
2023/07/29 12:15:14;;;;;;;3.77;2.60;;;23.00;99.90;;;;;;5034938;28;20462;-71
2023/07/29 12:17:43;;;;;;;4.10;3.03;;;23.00;99.90;;;;;;5034483;28;20446;-71
2023/07/29 12:20:12;;;;;;;3.53;2.77;;;23.10;99.90;;;;;;5033242;28;20470;-71
2023/07/29 12:22:40;;;;;;;2.40;2.20;;;23.20;99.90;;;;;;5034903;28;20466;-71
2023/07/29 12:25:10;;;;;;;2.50;2.30;;;23.20;99.90;;;;;;5034887;28;20928;-71
2023/07/29 12:27:38;;;;;;;3.53;2.77;;;23.20;99.90;;;;;;5034332;28;20442;-71
2023/07/29 12:30:07;;;;;;;2.60;2.40;;;23.30;99.90;;;;;;5034542;28;20485;-71
2023/07/29 12:32:44;;;;;;;4.23;2.73;;;23.30;99.90;;;;;;5034425;28;21031;-71
2023/07/29 12:35:13;;;;;;;2.70;2.33;;;23.30;99.90;;;;;;5034350;28;20427;-71
2023/07/29 12:37:42;;;;;;;3.17;2.67;;;23.30;99.90;;;;;;5034181;28;20466;-71
2023/07/29 12:40:23;;;;;;;2.83;2.63;;;23.30;99.90;;;;;;5034356;28;20997;-71
2023/07/29 12:42:52;;;;;;;4.10;2.60;;;23.30;99.90;;;;;;5034164;28;20455;-71
2023/07/29 12:45:22;;;;;;;5.13;2.90;;;23.30;99.90;;;;;;5034299;28;20525;-71
2023/07/29 12:47:51;;;;;;;3.97;2.40;;;23.30;99.90;;;;;;5034526;28;20742;-71